createdAt,value
2022-11-17T00:01:12.993Z,78732.50
2022-11-17T00:02:46.888Z,78734.50
2022-11-17T00:04:19.923Z,78740.41
2022-11-17T00:05:52.907Z,78744.38
2022-11-17T00:07:25.787Z,78738.44
2022-11-17T00:08:58.894Z,78756.25
2022-11-17T00:10:31.880Z,78748.34
2022-11-17T00:12:23.586Z,78756.25
2022-11-17T00:14:16.243Z,78764.16
2022-11-17T00:15:49.370Z,78760.22
2022-11-17T00:17:22.269Z,78764.16
2022-11-17T00:19:13.685Z,78770.09
2022-11-17T00:21:04.870Z,78764.16
2022-11-17T00:22:37.789Z,78762.19
2022-11-17T00:24:10.861Z,78760.22
2022-11-17T00:25:43.824Z,78760.22
2022-11-17T00:27:17.258Z,78760.22
2022-11-17T00:28:59.284Z,78752.28
2022-11-17T00:30:50.557Z,78758.22
2022-11-17T00:32:41.997Z,78774.06
2022-11-17T00:34:20.867Z,78770.09
2022-11-17T00:35:54.984Z,78768.13
2022-11-17T00:37:30.452Z,78768.13
2022-11-17T00:39:04.033Z,78780.00
2022-11-17T00:40:36.999Z,78787.91
2022-11-17T00:42:09.835Z,78787.91
2022-11-17T00:43:42.933Z,78791.88
2022-11-17T00:45:15.956Z,78785.94
2022-11-17T00:46:49.650Z,78780.00
2022-11-17T00:48:22.548Z,78783.94
2022-11-17T00:49:55.376Z,78776.03
2022-11-17T00:51:28.637Z,78797.78
2022-11-17T00:53:01.709Z,78785.94
2022-11-17T00:54:34.654Z,78795.81
2022-11-17T00:56:07.848Z,78803.72
2022-11-17T00:57:40.787Z,78791.88
2022-11-17T00:59:14.188Z,78807.69
2022-11-17T01:00:49.466Z,78807.69
2022-11-17T01:02:22.377Z,78809.66
2022-11-17T01:04:04.272Z,78805.72
2022-11-17T01:05:37.457Z,78811.66
2022-11-17T01:07:10.372Z,78811.66
2022-11-17T01:08:43.922Z,78819.56
2022-11-17T01:10:16.896Z,78813.63
2022-11-17T01:11:51.843Z,78799.78
2022-11-17T01:13:24.736Z,78799.78
2022-11-17T01:14:57.567Z,78793.84
2022-11-17T01:16:31.655Z,78795.81
2022-11-17T01:18:04.608Z,78795.81
2022-11-17T01:19:37.501Z,78813.63
2022-11-17T01:21:24.770Z,78805.72
2022-11-17T01:22:57.656Z,78807.69
2022-11-17T01:24:30.664Z,78811.66
2022-11-17T01:26:09.085Z,78813.63
2022-11-17T01:27:41.925Z,78815.59
2022-11-17T01:29:19.304Z,78827.47
2022-11-17T01:30:59.876Z,78811.66
2022-11-17T01:32:32.828Z,78811.66
2022-11-17T01:34:06.589Z,78807.69
2022-11-17T01:35:39.533Z,78815.59
2022-11-17T01:37:21.665Z,78803.72
2022-11-17T01:38:54.977Z,78833.41
2022-11-17T01:40:27.843Z,78811.66
2022-11-17T01:42:05.719Z,78807.69
2022-11-17T01:43:44.545Z,78815.59
2022-11-17T01:45:22.554Z,78815.59
2022-11-17T01:47:00.654Z,78809.66
2022-11-17T01:48:34.407Z,78807.69
2022-11-17T01:50:33.659Z,78797.78
2022-11-17T01:52:08.882Z,78803.72
2022-11-17T01:53:43.959Z,78807.69
2022-11-17T01:55:20.252Z,78801.75
2022-11-17T01:56:58.477Z,78815.59
2022-11-17T01:58:36.760Z,78807.69
2022-11-17T02:00:12.069Z,78811.66
2022-11-17T02:02:02.678Z,78807.69
2022-11-17T02:03:38.015Z,78819.56
2022-11-17T02:05:22.735Z,78813.63
2022-11-17T02:07:11.939Z,78815.59
2022-11-17T02:08:47.478Z,78823.53
2022-11-17T02:10:20.753Z,78827.47
2022-11-17T02:11:56.449Z,78827.47
2022-11-17T02:13:29.691Z,78833.41
2022-11-17T02:15:23.099Z,78831.44
2022-11-17T02:16:56.729Z,78839.34
2022-11-17T02:18:29.731Z,78835.38
2022-11-17T02:20:18.296Z,78829.44
2022-11-17T02:22:26.958Z,78829.44
2022-11-17T02:24:19.619Z,78823.53
2022-11-17T02:26:14.068Z,78835.38
2022-11-17T02:27:51.737Z,78837.38
2022-11-17T02:29:53.766Z,78843.31
2022-11-17T02:31:33.558Z,78839.34
2022-11-17T02:33:20.417Z,78835.38
2022-11-17T02:35:06.795Z,78835.38
2022-11-17T02:37:04.172Z,78841.31
2022-11-17T02:38:54.761Z,78837.38
2022-11-17T02:40:34.473Z,78831.44
2022-11-17T02:42:48.035Z,78829.44
2022-11-17T02:44:37.497Z,78831.44
2022-11-17T02:46:14.589Z,78831.44
2022-11-17T02:47:50.993Z,78839.34
2022-11-17T02:49:30.055Z,78839.34
2022-11-17T02:51:07.016Z,78841.31
2022-11-17T02:52:39.996Z,78839.34
2022-11-17T02:54:13.683Z,78839.34
2022-11-17T02:55:54.286Z,78841.31
2022-11-17T02:57:35.543Z,78843.31
2022-11-17T02:59:08.800Z,78831.44
2022-11-17T03:00:52.128Z,78831.44
2022-11-17T03:02:33.562Z,78841.31
2022-11-17T03:04:28.041Z,78841.31
2022-11-17T03:06:06.930Z,78845.28
2022-11-17T03:08:16.155Z,78843.31
2022-11-17T03:10:20.116Z,78847.25
2022-11-17T03:12:22.353Z,78841.31
2022-11-17T03:14:06.700Z,78841.31
2022-11-17T03:16:04.883Z,78839.34
2022-11-17T03:17:52.914Z,78841.31
2022-11-17T03:20:24.130Z,78843.31
2022-11-17T03:22:35.170Z,78847.25
2022-11-17T03:24:36.141Z,78855.16
2022-11-17T03:26:16.944Z,78851.22
2022-11-17T03:27:57.042Z,78843.31
2022-11-17T03:29:33.816Z,78847.25
2022-11-17T03:31:09.580Z,78845.28
2022-11-17T03:32:48.979Z,78861.09
2022-11-17T03:34:24.954Z,78839.34
2022-11-17T03:36:04.793Z,78847.25
2022-11-17T03:37:44.189Z,78847.25
2022-11-17T03:39:24.101Z,78847.25
2022-11-17T03:41:00.091Z,78839.34
2022-11-17T03:42:37.923Z,78843.31
2022-11-17T03:44:14.177Z,78845.28
2022-11-17T03:45:54.816Z,78843.31
2022-11-17T03:47:30.093Z,78835.38
2022-11-17T03:49:14.852Z,78821.53
2022-11-17T03:50:55.720Z,78819.56
2022-11-17T03:52:30.048Z,78823.53
2022-11-17T03:54:03.146Z,78819.56
2022-11-17T03:56:00.307Z,78813.63
2022-11-17T03:57:41.939Z,78827.47
2022-11-17T03:59:20.332Z,78807.69
2022-11-17T04:00:56.003Z,78807.69
2022-11-17T04:02:28.951Z,78807.69
2022-11-17T04:04:01.774Z,78795.81
2022-11-17T04:05:34.853Z,78795.81
2022-11-17T04:07:07.815Z,78785.94
2022-11-17T04:08:40.876Z,78793.84
2022-11-17T04:10:19.236Z,78783.94
2022-11-17T04:12:10.353Z,78789.88
2022-11-17T04:14:01.947Z,78776.03
2022-11-17T04:15:53.172Z,78776.03
2022-11-17T04:17:26.261Z,78768.13
2022-11-17T04:18:59.620Z,78764.16
2022-11-17T04:20:41.785Z,78768.13
2022-11-17T04:22:14.614Z,78766.13
2022-11-17T04:23:47.375Z,78756.25
2022-11-17T04:25:40.269Z,78756.25
2022-11-17T04:27:31.751Z,78750.31
2022-11-17T04:29:04.853Z,78742.41
2022-11-17T04:30:37.834Z,78736.47
2022-11-17T04:32:10.670Z,78736.47
2022-11-17T04:33:45.818Z,78728.56
2022-11-17T04:35:18.744Z,78724.59
2022-11-17T04:36:51.575Z,78722.63
2022-11-17T04:38:24.435Z,78730.53
2022-11-17T04:39:57.537Z,78716.69
2022-11-17T04:41:50.024Z,78702.84
2022-11-17T04:43:23.145Z,78702.84
2022-11-17T04:44:55.990Z,78687.00
2022-11-17T04:46:31.749Z,78688.97
2022-11-17T04:48:04.647Z,78683.03
2022-11-17T04:49:37.510Z,78679.09
2022-11-17T04:51:10.854Z,78665.25
2022-11-17T04:52:43.905Z,78661.28
2022-11-17T04:54:19.975Z,78645.47
2022-11-17T04:55:54.615Z,78649.41
2022-11-17T04:57:27.691Z,78675.13
2022-11-17T04:59:00.685Z,78679.09
2022-11-17T05:00:33.697Z,78688.97
2022-11-17T05:02:06.734Z,78694.91
2022-11-17T05:03:48.253Z,78685.03
2022-11-17T05:05:21.210Z,78675.13
2022-11-17T05:06:54.160Z,78679.09
2022-11-17T05:08:27.000Z,78675.13
2022-11-17T05:09:59.888Z,78665.25
2022-11-17T05:11:51.439Z,78623.69
2022-11-17T05:13:27.505Z,78659.31
2022-11-17T05:15:00.502Z,78651.38
2022-11-17T05:17:10.909Z,78665.25
2022-11-17T05:18:44.780Z,78659.31
2022-11-17T05:20:18.639Z,78663.25
2022-11-17T05:21:51.809Z,78611.81
2022-11-17T05:23:43.085Z,78576.22
2022-11-17T05:25:16.317Z,78532.69
2022-11-17T05:26:50.513Z,78530.72
2022-11-17T05:28:23.464Z,78550.50
2022-11-17T05:29:56.461Z,78570.28
2022-11-17T05:31:30.103Z,78522.81
2022-11-17T05:33:03.015Z,78548.50
2022-11-17T05:34:36.062Z,78510.94
2022-11-17T05:36:09.736Z,78530.72
2022-11-17T05:37:42.670Z,78514.88
2022-11-17T05:39:16.201Z,78503.00
2022-11-17T05:40:49.146Z,78489.16
2022-11-17T05:42:21.940Z,78485.22
2022-11-17T05:43:55.993Z,78491.16
2022-11-17T05:45:29.097Z,78481.25
2022-11-17T05:47:02.125Z,78473.34
2022-11-17T05:48:35.050Z,78455.53
2022-11-17T05:50:08.176Z,78459.50
2022-11-17T05:51:40.963Z,78467.41
2022-11-17T05:53:14.279Z,78421.91
2022-11-17T05:54:47.190Z,78423.88
2022-11-17T05:56:29.286Z,78400.13
2022-11-17T05:58:12.225Z,78384.31
2022-11-17T05:59:57.236Z,78334.84
2022-11-17T06:01:33.054Z,78269.56
2022-11-17T06:03:12.738Z,78313.09
2022-11-17T06:04:46.596Z,78346.72
2022-11-17T06:06:19.875Z,78364.53
2022-11-17T06:08:00.659Z,78307.16
2022-11-17T06:09:37.040Z,78269.56
2022-11-17T06:11:09.966Z,78259.69
2022-11-17T06:12:42.820Z,78285.41
2022-11-17T06:14:15.858Z,78303.22
2022-11-17T06:15:48.751Z,78340.78
2022-11-17T06:17:26.536Z,78374.44
2022-11-17T06:19:12.457Z,78352.66
2022-11-17T06:20:50.298Z,78429.81
2022-11-17T06:22:24.795Z,78427.84
2022-11-17T06:23:58.377Z,78441.69
2022-11-17T06:25:32.984Z,78455.53
2022-11-17T06:27:06.942Z,78465.44
2022-11-17T06:28:43.546Z,78467.41
2022-11-17T06:30:16.565Z,78503.00
2022-11-17T06:31:49.542Z,78524.78
2022-11-17T06:33:22.735Z,78518.84
2022-11-17T06:34:56.699Z,78501.03
2022-11-17T06:36:31.057Z,78491.16
2022-11-17T06:38:04.407Z,78514.88
2022-11-17T06:39:37.432Z,78503.00
2022-11-17T06:41:12.102Z,78546.53
2022-11-17T06:43:03.645Z,78526.75
2022-11-17T06:44:36.784Z,78528.72
2022-11-17T06:46:09.843Z,78520.81
2022-11-17T06:47:42.883Z,78534.66
2022-11-17T06:49:16.020Z,78534.66
2022-11-17T06:50:49.009Z,78524.78
2022-11-17T06:52:22.023Z,78546.53
2022-11-17T06:53:55.017Z,78514.88
2022-11-17T06:55:28.273Z,78485.22
2022-11-17T06:57:01.362Z,78503.00
2022-11-17T06:58:36.395Z,78499.06
2022-11-17T07:00:10.409Z,78505.00
2022-11-17T07:01:43.782Z,78516.88
2022-11-17T07:03:16.846Z,78510.94
2022-11-17T07:04:49.845Z,78526.75
2022-11-17T07:06:22.910Z,78536.66
2022-11-17T07:07:59.886Z,78548.50
2022-11-17T07:09:32.930Z,78540.59
2022-11-17T07:11:09.520Z,78510.94
2022-11-17T07:12:42.615Z,78505.00
2022-11-17T07:14:15.579Z,78506.97
2022-11-17T07:15:50.351Z,78516.88
2022-11-17T07:17:23.436Z,78495.09
2022-11-17T07:18:56.544Z,78481.25
2022-11-17T07:20:29.540Z,78520.81
2022-11-17T07:22:04.752Z,78493.13
2022-11-17T07:23:39.545Z,78491.16
2022-11-17T07:25:12.689Z,78453.56
2022-11-17T07:26:45.794Z,78437.72
2022-11-17T07:28:19.094Z,78441.69
2022-11-17T07:29:52.092Z,78433.78
2022-11-17T07:31:25.018Z,78415.97
2022-11-17T07:33:01.289Z,78402.13
2022-11-17T07:34:34.194Z,78396.19
2022-11-17T07:36:10.029Z,78410.03
2022-11-17T07:37:43.001Z,78443.66
2022-11-17T07:39:21.232Z,78483.22
2022-11-17T07:40:58.655Z,78501.03
2022-11-17T07:42:32.262Z,78483.22
2022-11-17T07:44:05.236Z,78501.03
2022-11-17T07:45:38.826Z,78459.50
2022-11-17T07:47:11.951Z,78467.41
2022-11-17T07:48:44.987Z,78471.34
2022-11-17T07:50:18.255Z,78451.56
2022-11-17T07:51:51.465Z,78443.66
2022-11-17T07:53:24.423Z,78435.75
2022-11-17T07:54:57.484Z,78417.94
2022-11-17T07:56:30.493Z,78388.28
2022-11-17T07:58:03.690Z,78394.22
2022-11-17T07:59:36.760Z,78392.22
2022-11-17T08:01:12.791Z,78396.19
2022-11-17T08:02:45.702Z,78402.13
2022-11-17T08:04:18.733Z,78408.06
2022-11-17T08:05:51.472Z,78396.19
2022-11-17T08:07:24.141Z,78415.97
2022-11-17T08:08:57.114Z,78386.28
2022-11-17T08:10:33.192Z,78380.34
2022-11-17T08:12:06.395Z,78392.22
2022-11-17T08:13:40.486Z,78368.50
2022-11-17T08:15:13.466Z,78376.41
2022-11-17T08:16:46.605Z,78362.56
2022-11-17T08:18:19.555Z,78376.41
2022-11-17T08:19:52.463Z,78419.94
2022-11-17T08:21:25.453Z,78392.22
2022-11-17T08:22:59.065Z,78400.13
2022-11-17T08:24:32.102Z,78408.06
2022-11-17T08:26:06.123Z,78415.97
2022-11-17T08:27:39.039Z,78400.13
2022-11-17T08:29:11.829Z,78414.00
2022-11-17T08:30:44.783Z,78423.88
2022-11-17T08:32:17.659Z,78435.75
2022-11-17T08:33:50.638Z,78419.94
2022-11-17T08:35:25.321Z,78406.06
2022-11-17T08:36:58.202Z,78412.00
2022-11-17T08:38:31.707Z,78433.78
2022-11-17T08:40:05.247Z,78398.16
2022-11-17T08:41:38.489Z,78400.13
2022-11-17T08:43:11.678Z,78390.25
2022-11-17T08:44:44.515Z,78400.13
2022-11-17T08:46:17.496Z,78414.00
2022-11-17T08:47:50.625Z,78412.00
2022-11-17T08:49:23.496Z,78386.28
2022-11-17T08:50:56.560Z,78388.28
2022-11-17T08:52:29.546Z,78392.22
2022-11-17T08:54:02.901Z,78380.34
2022-11-17T08:55:41.179Z,78392.22
2022-11-17T08:57:14.627Z,78376.41
2022-11-17T08:58:48.120Z,78400.13
2022-11-17T09:00:22.183Z,78390.25
2022-11-17T09:01:55.092Z,78366.50
2022-11-17T09:03:28.033Z,78384.31
2022-11-17T09:05:01.198Z,78348.72
2022-11-17T09:06:34.484Z,78340.78
2022-11-17T09:08:37.805Z,78346.72
2022-11-17T09:10:01.727Z,78346.72
2022-11-17T09:11:36.896Z,78336.84
2022-11-17T09:13:11.874Z,78328.94
2022-11-17T09:14:46.701Z,78356.63
2022-11-17T09:16:19.791Z,78364.53
2022-11-17T09:17:53.033Z,78368.50
2022-11-17T09:19:26.032Z,78366.50
2022-11-17T09:21:03.619Z,78362.56
2022-11-17T09:22:36.586Z,78406.06
2022-11-17T09:24:10.691Z,78392.22
2022-11-17T09:25:43.751Z,78402.13
2022-11-17T09:27:16.657Z,78414.00
2022-11-17T09:28:49.610Z,78421.91
2022-11-17T09:30:23.580Z,78415.97
2022-11-17T09:31:56.733Z,78412.00
2022-11-17T09:33:29.707Z,78408.06
2022-11-17T09:35:06.453Z,78408.06
2022-11-17T09:36:40.044Z,78414.00
2022-11-17T09:38:13.216Z,78410.03
2022-11-17T09:39:46.612Z,78423.88
2022-11-17T09:41:33.838Z,78408.06
2022-11-17T09:43:18.915Z,78410.03
2022-11-17T09:45:03.042Z,78408.06
2022-11-17T09:46:55.942Z,78415.97
2022-11-17T09:48:48.471Z,78423.88
2022-11-17T09:50:36.882Z,78412.00
2022-11-17T09:52:18.694Z,78404.09
2022-11-17T09:54:03.149Z,78384.31
2022-11-17T09:55:43.667Z,78368.50
2022-11-17T09:57:23.412Z,78384.31
2022-11-17T09:59:05.208Z,78374.44
2022-11-17T10:00:40.798Z,78376.41
2022-11-17T10:02:13.810Z,78378.38
2022-11-17T10:03:48.835Z,78374.44
2022-11-17T10:05:34.774Z,78362.56
2022-11-17T10:07:10.292Z,78380.34
2022-11-17T10:08:54.076Z,78386.28
2022-11-17T10:10:49.315Z,78386.28
2022-11-17T10:12:33.903Z,78398.16
2022-11-17T10:14:12.449Z,78396.19
2022-11-17T10:15:49.050Z,78384.31
2022-11-17T10:17:22.097Z,78394.22
2022-11-17T10:18:55.179Z,78400.13
2022-11-17T10:20:28.319Z,78404.09
2022-11-17T10:22:04.101Z,78410.03
2022-11-17T10:23:47.156Z,78414.00
2022-11-17T10:25:38.665Z,78419.94
2022-11-17T10:27:25.633Z,78419.94
2022-11-17T10:29:11.702Z,78437.72
2022-11-17T10:31:00.975Z,78419.94
2022-11-17T10:32:49.600Z,78427.84
2022-11-17T10:34:41.428Z,78419.94
2022-11-17T10:36:25.459Z,78423.88
2022-11-17T10:38:15.559Z,78423.88
2022-11-17T10:39:48.653Z,78419.94
2022-11-17T10:41:25.926Z,78415.97
2022-11-17T10:43:14.600Z,78412.00
2022-11-17T10:44:51.927Z,78392.22
2022-11-17T10:46:24.948Z,78396.19
2022-11-17T10:48:17.711Z,78388.28
2022-11-17T10:50:13.372Z,78388.28
2022-11-17T10:52:14.976Z,78414.00
2022-11-17T10:54:06.048Z,78412.00
2022-11-17T10:55:39.796Z,78421.91
2022-11-17T10:57:18.412Z,78427.84
2022-11-17T10:59:02.861Z,78443.66
2022-11-17T11:00:37.687Z,78415.97
2022-11-17T11:02:40.325Z,78447.63
2022-11-17T11:04:35.835Z,78435.75
2022-11-17T11:06:26.920Z,78449.59
2022-11-17T11:08:32.922Z,78435.75
2022-11-17T11:10:35.687Z,78443.66
2022-11-17T11:12:15.768Z,78443.66
2022-11-17T11:14:05.356Z,78447.63
2022-11-17T11:15:38.454Z,78475.31
2022-11-17T11:17:13.924Z,78473.34
2022-11-17T11:18:49.215Z,78479.28
2022-11-17T11:21:08.404Z,78491.16
2022-11-17T11:22:57.848Z,78487.19
2022-11-17T11:24:57.533Z,78501.03
2022-11-17T11:27:27.365Z,78506.97
2022-11-17T11:29:05.820Z,78503.00
2022-11-17T11:30:47.884Z,78510.94
2022-11-17T11:32:25.457Z,78514.88
2022-11-17T11:34:32.036Z,78512.91
2022-11-17T11:36:45.124Z,78522.81
2022-11-17T11:38:38.434Z,78526.75
2022-11-17T11:40:28.213Z,78536.66
2022-11-17T11:42:08.271Z,78536.66
2022-11-17T11:44:03.013Z,78534.66
2022-11-17T11:45:57.600Z,78538.63
2022-11-17T11:47:48.731Z,78538.63
2022-11-17T11:49:36.543Z,78544.56
2022-11-17T11:51:16.285Z,78544.56
2022-11-17T11:52:56.477Z,78546.53
2022-11-17T11:54:46.297Z,78542.59
2022-11-17T11:56:39.043Z,78548.50
2022-11-17T11:58:24.925Z,78552.47
2022-11-17T12:00:04.895Z,78548.50
2022-11-17T12:01:50.039Z,78558.41
2022-11-17T12:03:43.401Z,78554.44
2022-11-17T12:05:27.619Z,78560.38
2022-11-17T12:07:11.628Z,78562.38
2022-11-17T12:08:56.383Z,78584.13
2022-11-17T12:10:54.235Z,78564.34
2022-11-17T12:12:39.532Z,78562.38
2022-11-17T12:14:18.722Z,78562.38
2022-11-17T12:15:53.742Z,78574.22
2022-11-17T12:17:26.836Z,78566.31
2022-11-17T12:19:00.123Z,78592.03
2022-11-17T12:20:39.058Z,78572.25
2022-11-17T12:22:34.325Z,78566.31
2022-11-17T12:24:18.650Z,78572.25
2022-11-17T12:25:55.067Z,78578.19
2022-11-17T12:27:34.677Z,78584.13
2022-11-17T12:29:22.778Z,78586.09
2022-11-17T12:31:08.342Z,78582.16
2022-11-17T12:32:45.790Z,78590.06
2022-11-17T12:34:21.574Z,78594.03
2022-11-17T12:36:30.945Z,78592.03
2022-11-17T12:38:16.845Z,78588.09
2022-11-17T12:39:57.437Z,78590.06
2022-11-17T12:41:54.559Z,78594.03
2022-11-17T12:43:29.734Z,78605.88
2022-11-17T12:45:05.506Z,78592.03
2022-11-17T12:46:38.488Z,78592.03
2022-11-17T12:48:32.925Z,78588.09
2022-11-17T12:50:19.393Z,78588.09
2022-11-17T12:52:05.094Z,78586.09
2022-11-17T12:54:07.066Z,78592.03
2022-11-17T12:56:03.399Z,78586.09
2022-11-17T12:57:36.626Z,78586.09
2022-11-17T12:59:43.658Z,78584.13
2022-11-17T13:01:45.055Z,78586.09
2022-11-17T13:03:27.027Z,78590.06
2022-11-17T13:05:09.517Z,78613.81
2022-11-17T13:07:03.546Z,78590.06
2022-11-17T13:08:36.453Z,78597.97
2022-11-17T13:10:32.098Z,78597.97
2022-11-17T13:12:07.680Z,78597.97
2022-11-17T13:13:46.861Z,78597.97
2022-11-17T13:15:24.249Z,78596.00
2022-11-17T13:16:57.710Z,78605.88
2022-11-17T13:18:34.162Z,78601.94
2022-11-17T13:20:29.915Z,78605.88
2022-11-17T13:22:12.141Z,78609.84
2022-11-17T13:23:45.769Z,78613.81
2022-11-17T13:25:23.110Z,78617.75
2022-11-17T13:27:01.600Z,78621.72
2022-11-17T13:28:35.059Z,78625.66
2022-11-17T13:30:16.206Z,78625.66
2022-11-17T13:31:49.127Z,78625.66
2022-11-17T13:33:24.100Z,78623.69
2022-11-17T13:35:00.197Z,78619.75
2022-11-17T13:36:34.264Z,78643.47
2022-11-17T13:38:20.361Z,78627.66
2022-11-17T13:39:55.980Z,78627.66
2022-11-17T13:41:37.990Z,78629.63
2022-11-17T13:43:20.773Z,78629.63
2022-11-17T13:44:59.110Z,78647.44
2022-11-17T13:46:31.995Z,78631.59
2022-11-17T13:48:04.989Z,78637.53
2022-11-17T13:49:39.708Z,78639.53
2022-11-17T13:51:35.292Z,78637.53
2022-11-17T13:53:12.106Z,78643.47
2022-11-17T13:54:45.616Z,78639.53
2022-11-17T13:56:32.434Z,78649.41
2022-11-17T13:58:23.344Z,78649.41
2022-11-17T14:00:01.564Z,78651.38
2022-11-17T14:01:34.560Z,78649.41
2022-11-17T14:03:32.333Z,78641.50
2022-11-17T14:05:20.461Z,78653.38
2022-11-17T14:07:03.104Z,78663.25
2022-11-17T14:08:37.566Z,78649.41
2022-11-17T14:10:22.809Z,78649.41
2022-11-17T14:11:56.205Z,78649.41
2022-11-17T14:13:31.115Z,78653.38
2022-11-17T14:15:32.756Z,78653.38
2022-11-17T14:17:21.309Z,78659.31
2022-11-17T14:18:58.910Z,78653.38
2022-11-17T14:20:36.794Z,78661.28
2022-11-17T14:22:09.759Z,78661.28
2022-11-17T14:23:44.524Z,78655.34
2022-11-17T14:25:17.608Z,78661.28
2022-11-17T14:26:50.864Z,78661.28
2022-11-17T14:28:24.085Z,78655.34
2022-11-17T14:29:57.466Z,78649.41
2022-11-17T14:31:31.342Z,78659.31
2022-11-17T14:33:10.493Z,78651.38
2022-11-17T14:34:46.359Z,78651.38
2022-11-17T14:36:20.046Z,78651.38
2022-11-17T14:37:53.108Z,78653.38
2022-11-17T14:39:26.389Z,78655.34
2022-11-17T14:40:59.489Z,78653.38
2022-11-17T14:42:35.948Z,78649.41
2022-11-17T14:44:10.146Z,78649.41
2022-11-17T14:45:43.578Z,78653.38
2022-11-17T14:47:16.750Z,78659.31
2022-11-17T14:48:51.054Z,78661.28
2022-11-17T14:50:23.997Z,78659.31
2022-11-17T14:51:59.533Z,78659.31
2022-11-17T14:53:32.434Z,78659.31
2022-11-17T14:55:06.163Z,78651.38
2022-11-17T14:56:39.079Z,78657.31
2022-11-17T14:58:12.424Z,78663.25
2022-11-17T14:59:45.705Z,78663.25
2022-11-17T15:01:24.452Z,78665.25
2022-11-17T15:02:57.619Z,78665.25
2022-11-17T15:06:24.595Z,78673.16
2022-11-17T15:07:57.581Z,78673.16
2022-11-17T15:09:30.531Z,78673.16
2022-11-17T15:11:04.718Z,78671.19
2022-11-17T15:12:37.888Z,78677.13
2022-11-17T15:14:11.853Z,78673.16
2022-11-17T15:15:44.762Z,78677.13
2022-11-17T15:17:18.036Z,78675.13
2022-11-17T15:18:51.433Z,78671.19
2022-11-17T15:20:24.252Z,78669.19
2022-11-17T15:21:57.970Z,78665.25
2022-11-17T15:23:31.298Z,78669.19
2022-11-17T15:25:04.536Z,78667.22
2022-11-17T15:26:37.469Z,78696.91
2022-11-17T15:28:15.060Z,78665.25
2022-11-17T15:29:50.409Z,78665.25
2022-11-17T15:31:24.143Z,78661.28
2022-11-17T15:33:01.307Z,78663.25
2022-11-17T15:34:34.544Z,78661.28
2022-11-17T15:36:09.526Z,78659.31
2022-11-17T15:37:42.400Z,78653.38
2022-11-17T15:39:15.880Z,78649.41
2022-11-17T15:40:54.851Z,78649.41
2022-11-17T15:42:28.002Z,78645.47
2022-11-17T15:44:01.437Z,78643.47
2022-11-17T15:45:34.451Z,78645.47
2022-11-17T15:47:07.252Z,78641.50
2022-11-17T15:48:43.440Z,78635.56
2022-11-17T15:50:17.611Z,78645.47
2022-11-17T15:51:50.567Z,78631.59
2022-11-17T15:53:23.541Z,78637.53
2022-11-17T15:54:57.141Z,78633.59
2022-11-17T15:56:36.526Z,78669.19
2022-11-17T15:58:09.561Z,78637.53
2022-11-17T15:59:42.711Z,78627.66
2022-11-17T16:01:25.563Z,78637.53
2022-11-17T16:02:59.885Z,78635.56
2022-11-17T16:04:32.984Z,78629.63
2022-11-17T16:06:06.412Z,78633.59
2022-11-17T16:07:40.481Z,78635.56
2022-11-17T16:09:13.675Z,78633.59
2022-11-17T16:10:46.775Z,78623.69
2022-11-17T16:12:19.806Z,78621.72
2022-11-17T16:13:57.249Z,78619.75
2022-11-17T16:15:30.328Z,78623.69
2022-11-17T16:17:03.210Z,78621.72
2022-11-17T16:18:38.850Z,78609.84
2022-11-17T16:20:12.583Z,78615.78
2022-11-17T16:21:45.773Z,78621.72
2022-11-17T16:23:18.870Z,78615.78
2022-11-17T16:24:51.719Z,78613.81
2022-11-17T16:26:26.849Z,78621.72
2022-11-17T16:28:00.115Z,78611.81
2022-11-17T16:29:33.122Z,78611.81
2022-11-17T16:31:23.391Z,78615.78
2022-11-17T16:32:56.881Z,78617.75
2022-11-17T16:34:30.269Z,78615.78
2022-11-17T16:36:06.684Z,78619.75
2022-11-17T16:37:39.697Z,78617.75
2022-11-17T16:39:15.919Z,78621.72
2022-11-17T16:40:49.214Z,78623.69
2022-11-17T16:42:22.890Z,78615.78
2022-11-17T16:43:56.299Z,78619.75
2022-11-17T16:45:29.752Z,78619.75
2022-11-17T16:47:03.006Z,78627.66
2022-11-17T16:48:36.031Z,78633.59
2022-11-17T16:50:09.346Z,78621.72
2022-11-17T16:51:48.244Z,78621.72
2022-11-17T16:53:21.336Z,78621.72
2022-11-17T16:54:54.505Z,78625.66
2022-11-17T16:56:28.466Z,78619.75
2022-11-17T16:58:03.173Z,78617.75
2022-11-17T16:59:36.831Z,78613.81
2022-11-17T17:01:19.802Z,78613.81
2022-11-17T17:02:52.921Z,78613.81
2022-11-17T17:04:29.442Z,78605.88
2022-11-17T17:06:07.431Z,78605.88
2022-11-17T17:07:40.439Z,78609.84
2022-11-17T17:09:15.595Z,78599.94
2022-11-17T17:10:49.349Z,78603.91
2022-11-17T17:12:22.382Z,78605.88
2022-11-17T17:13:56.816Z,78601.94
2022-11-17T17:15:29.810Z,78594.03
2022-11-17T17:17:04.751Z,78621.72
2022-11-17T17:18:38.725Z,78597.97
2022-11-17T17:20:11.880Z,78596.00
2022-11-17T17:21:45.803Z,78597.97
2022-11-17T17:23:20.247Z,78607.88
2022-11-17T17:24:53.534Z,78586.09
2022-11-17T17:26:28.571Z,78605.88
2022-11-17T17:28:01.782Z,78590.06
2022-11-17T17:29:35.202Z,78590.06
2022-11-17T17:31:08.661Z,78586.09
2022-11-17T17:32:41.688Z,78590.06
2022-11-17T17:34:14.968Z,78609.84
2022-11-17T17:35:48.241Z,78592.03
2022-11-17T17:37:21.923Z,78592.03
2022-11-17T17:38:56.757Z,78588.09
2022-11-17T17:40:29.656Z,78594.03
2022-11-17T17:42:03.577Z,78586.09
2022-11-17T17:43:37.132Z,78588.09
2022-11-17T17:45:11.253Z,78586.09
2022-11-17T17:46:45.319Z,78590.06
2022-11-17T17:48:18.783Z,78586.09
2022-11-17T17:49:51.812Z,78574.22
2022-11-17T17:51:26.008Z,78578.19
2022-11-17T17:52:58.979Z,78586.09
2022-11-17T17:54:32.474Z,78582.16
2022-11-17T17:56:11.452Z,78574.22
2022-11-17T17:57:44.415Z,78580.16
2022-11-17T17:59:18.170Z,78580.16
2022-11-17T18:00:53.053Z,78578.19
2022-11-17T18:02:26.159Z,78572.25
2022-11-17T18:04:09.036Z,78570.28
2022-11-17T18:05:44.225Z,78574.22
2022-11-17T18:07:18.061Z,78568.31
2022-11-17T18:08:51.376Z,78560.38
2022-11-17T18:10:24.259Z,78562.38
2022-11-17T18:11:57.173Z,78558.41
2022-11-17T18:13:34.666Z,78550.50
2022-11-17T18:15:08.199Z,78562.38
2022-11-17T18:16:41.489Z,78552.47
2022-11-17T18:18:14.654Z,78550.50
2022-11-17T18:19:48.007Z,78562.38
2022-11-17T18:21:22.054Z,78546.53
2022-11-17T18:22:56.763Z,78552.47
2022-11-17T18:24:29.761Z,78554.44
2022-11-17T18:26:30.966Z,78550.50
2022-11-17T18:28:03.947Z,78570.28
2022-11-17T18:29:36.970Z,78552.47
2022-11-17T18:31:10.867Z,78550.50
2022-11-17T18:32:44.363Z,78548.50
2022-11-17T18:34:21.942Z,78548.50
2022-11-17T18:35:55.015Z,78550.50
2022-11-17T18:37:27.889Z,78554.44
2022-11-17T18:39:01.277Z,78546.53
2022-11-17T18:40:34.284Z,78546.53
2022-11-17T18:42:07.467Z,78548.50
2022-11-17T18:43:40.536Z,78552.47
2022-11-17T18:45:14.140Z,78552.47
2022-11-17T18:46:47.667Z,78542.59
2022-11-17T18:48:20.915Z,78546.53
2022-11-17T18:49:53.865Z,78550.50
2022-11-17T18:51:29.541Z,78582.16
2022-11-17T18:53:02.488Z,78550.50
2022-11-17T18:54:35.840Z,78550.50
2022-11-17T18:56:11.542Z,78552.47
2022-11-17T18:57:45.118Z,78554.44
2022-11-17T18:59:18.949Z,78550.50
2022-11-17T19:00:52.060Z,78550.50
2022-11-17T19:02:25.107Z,78550.50
2022-11-17T19:04:02.814Z,78546.53
2022-11-17T19:05:35.997Z,78554.44
2022-11-17T19:07:09.020Z,78546.53
2022-11-17T19:08:42.492Z,78546.53
2022-11-17T19:10:16.568Z,78548.50
2022-11-17T19:11:49.581Z,78546.53
2022-11-17T19:13:23.307Z,78582.16
2022-11-17T19:14:56.182Z,78550.50